Stites, Illinois
Current Conditions -  °F | °C
As of 9:53 AM on Sunday 21 Dec 2014 (Local Time) from KCPS Reporting Station
Overcast Overcast  
Wind Chill: 34°   Ceiling: 2300
Heat Index: 39°   Visibility: 10mi
Dew Point: 33°   Wind: 7mph
Humidity: 79%   Direction: 160°SSE
Pressure: 30.22"   Gusts: NA
Location:  38.6276°N, 90.1494°W
Report Text: KCPS 211553Z 16006KT 10SM OVC023 04/01 A3022 RMK AO2 SLP235 T00390006
Loading
Personal Weather Stations






























Interactive Weather Map New forecast layout! Learn more

10-Day Weather Forecast

Advertisements
Track Severe Weather on mobile